Val Verde, California
Current Conditions -  °F | °C
As of 3:48 PM on Wednesday 22 Oct 2014 (Local Time) from KSDB Reporting Station
Clear Clear  
Wind Chill: 76°   Ceiling: Unl
Heat Index: 76°   Visibility: 10mi
Dew Point: 27°   Wind: 9mph
Humidity: 16%   Direction: 60°ENE
Pressure: 30.11"   Gusts: NA
Location:  34.5552°N, 118.643°W
Report Text: KSDB 222248Z AUTO 06008KT 10SM CLR 24/M03 A3011 RMK AO2 SLP152 T02441028
Loading
Personal Weather Stations






























Interactive Weather Map
Tropical Storm Tracking
New forecast layout! Learn more

10-Day Weather Forecast

Advertisements
Track Severe Weather on mobile